East Sheldon, Vermont
Current Conditions -  °F | °C
As of 11:55 PM on Sunday 21 Dec 2014 (Local Time) from KFSO Reporting Station
Haze Haze  
Wind Chill: 19°   Ceiling: 2900
Heat Index: 19°   Visibility: 4mi
Dew Point: 18°   Wind: 0mph
Humidity: 93%   Direction: NA
Pressure: 30.39"   Gusts: NA
Location:  44.8764°N, 72.758°W
Report Text: KFSO 220455Z AUTO 00000KT 4SM BR OVC029 M07/M08 A3039 RMK AO2 T10701080 410701095
Loading
Personal Weather Stations






























Interactive Weather Map New forecast layout! Learn more

10-Day Weather Forecast

Advertisements
Track Severe Weather on mobile